sensor_id;sensor_type;location;lat;lon;timestamp;P1;durP1;ratioP1;P2;durP2;ratioP2
39434;SDS011;66825;51.880;-0.518;2023-02-15T00:01:39;7.50;;;6.70;;
39434;SDS011;66825;51.880;-0.518;2023-02-15T00:04:05;7.65;;;6.85;;
39434;SDS011;66825;51.880;-0.518;2023-02-15T00:06:32;8.00;;;6.38;;
39434;SDS011;66825;51.880;-0.518;2023-02-15T00:08:58;7.35;;;6.60;;
39434;SDS011;66825;51.880;-0.518;2023-02-15T00:11:24;7.05;;;6.35;;
39434;SDS011;66825;51.880;-0.518;2023-02-15T00:16:33;7.38;;;6.60;;
39434;SDS011;66825;51.880;-0.518;2023-02-15T00:18:59;7.78;;;6.97;;
39434;SDS011;66825;51.880;-0.518;2023-02-15T00:21:27;7.85;;;7.05;;
39434;SDS011;66825;51.880;-0.518;2023-02-15T00:23:58;7.20;;;6.60;;
39434;SDS011;66825;51.880;-0.518;2023-02-15T00:26:24;8.05;;;6.88;;
39434;SDS011;66825;51.880;-0.518;2023-02-15T00:28:50;7.70;;;6.90;;
39434;SDS011;66825;51.880;-0.518;2023-02-15T00:31:16;7.60;;;6.80;;
39434;SDS011;66825;51.880;-0.518;2023-02-15T00:33:42;7.35;;;6.65;;
39434;SDS011;66825;51.880;-0.518;2023-02-15T00:36:08;7.68;;;6.82;;
39434;SDS011;66825;51.880;-0.518;2023-02-15T00:38:35;7.45;;;6.65;;
39434;SDS011;66825;51.880;-0.518;2023-02-15T00:41:02;8.18;;;6.75;;
39434;SDS011;66825;51.880;-0.518;2023-02-15T00:43:29;7.38;;;6.68;;
39434;SDS011;66825;51.880;-0.518;2023-02-15T00:45:56;8.32;;;7.53;;
39434;SDS011;66825;51.880;-0.518;2023-02-15T00:48:22;8.15;;;7.25;;
39434;SDS011;66825;51.880;-0.518;2023-02-15T00:50:54;9.13;;;7.18;;
39434;SDS011;66825;51.880;-0.518;2023-02-15T00:53:23;8.05;;;7.10;;
39434;SDS011;66825;51.880;-0.518;2023-02-15T00:55:49;7.78;;;7.00;;
39434;SDS011;66825;51.880;-0.518;2023-02-15T00:58:15;7.90;;;7.05;;
39434;SDS011;66825;51.880;-0.518;2023-02-15T01:00:41;8.13;;;7.32;;
39434;SDS011;66825;51.880;-0.518;2023-02-15T01:03:08;8.35;;;7.53;;
39434;SDS011;66825;51.880;-0.518;2023-02-15T01:05:35;8.77;;;7.38;;
39434;SDS011;66825;51.880;-0.518;2023-02-15T01:08:00;7.78;;;6.97;;
39434;SDS011;66825;51.880;-0.518;2023-02-15T01:10:27;7.70;;;6.88;;
39434;SDS011;66825;51.880;-0.518;2023-02-15T01:12:53;8.40;;;7.50;;
39434;SDS011;66825;51.880;-0.518;2023-02-15T01:15:19;8.25;;;7.40;;
39434;SDS011;66825;51.880;-0.518;2023-02-15T01:17:44;7.70;;;6.90;;
39434;SDS011;66825;51.880;-0.518;2023-02-15T01:20:16;8.38;;;7.25;;
39434;SDS011;66825;51.880;-0.518;2023-02-15T01:22:43;8.40;;;7.50;;
39434;SDS011;66825;51.880;-0.518;2023-02-15T01:25:08;8.45;;;7.55;;
39434;SDS011;66825;51.880;-0.518;2023-02-15T01:27:34;8.30;;;7.30;;
39434;SDS011;66825;51.880;-0.518;2023-02-15T01:29:59;7.85;;;7.05;;
39434;SDS011;66825;51.880;-0.518;2023-02-15T01:32:25;8.35;;;7.43;;
39434;SDS011;66825;51.880;-0.518;2023-02-15T01:34:52;8.23;;;7.07;;
39434;SDS011;66825;51.880;-0.518;2023-02-15T01:37:17;8.35;;;7.43;;
39434;SDS011;66825;51.880;-0.518;2023-02-15T01:39:43;7.65;;;6.85;;
39434;SDS011;66825;51.880;-0.518;2023-02-15T01:42:11;7.70;;;6.90;;
39434;SDS011;66825;51.880;-0.518;2023-02-15T01:44:48;8.52;;;7.72;;
39434;SDS011;66825;51.880;-0.518;2023-02-15T01:50:10;8.18;;;7.35;;
39434;SDS011;66825;51.880;-0.518;2023-02-15T01:52:52;7.45;;;6.57;;
39434;SDS011;66825;51.880;-0.518;2023-02-15T01:55:25;7.82;;;7.03;;
39434;SDS011;66825;51.880;-0.518;2023-02-15T01:57:54;7.40;;;6.70;;
39434;SDS011;66825;51.880;-0.518;2023-02-15T02:00:20;7.30;;;6.60;;
39434;SDS011;66825;51.880;-0.518;2023-02-15T02:02:47;8.55;;;7.28;;
39434;SDS011;66825;51.880;-0.518;2023-02-15T02:05:16;7.82;;;7.03;;
39434;SDS011;66825;51.880;-0.518;2023-02-15T02:07:42;7.93;;;7.03;;
39434;SDS011;66825;51.880;-0.518;2023-02-15T02:10:12;8.10;;;7.30;;
39434;SDS011;66825;51.880;-0.518;2023-02-15T02:12:41;7.97;;;7.18;;
39434;SDS011;66825;51.880;-0.518;2023-02-15T02:15:10;7.72;;;6.97;;
39434;SDS011;66825;51.880;-0.518;2023-02-15T02:23:15;8.00;;;7.20;;
39434;SDS011;66825;51.880;-0.518;2023-02-15T02:31:39;7.55;;;6.82;;
39434;SDS011;66825;51.880;-0.518;2023-02-15T02:37:25;7.65;;;6.85;;
39434;SDS011;66825;51.880;-0.518;2023-02-15T02:40:21;8.18;;;7.25;;
39434;SDS011;66825;51.880;-0.518;2023-02-15T02:46:07;7.28;;;6.57;;
39434;SDS011;66825;51.880;-0.518;2023-02-15T02:48:39;8.05;;;7.25;;
39434;SDS011;66825;51.880;-0.518;2023-02-15T02:51:05;7.43;;;6.65;;
39434;SDS011;66825;51.880;-0.518;2023-02-15T02:53:31;7.57;;;6.88;;
39434;SDS011;66825;51.880;-0.518;2023-02-15T02:56:03;7.78;;;6.97;;
39434;SDS011;66825;51.880;-0.518;2023-02-15T02:59:20;7.88;;;7.05;;
39434;SDS011;66825;51.880;-0.518;2023-02-15T03:01:31;7.88;;;7.07;;
39434;SDS011;66825;51.880;-0.518;2023-02-15T03:04:13;8.07;;;7.28;;
39434;SDS011;66825;51.880;-0.518;2023-02-15T03:06:46;7.68;;;6.88;;
39434;SDS011;66825;51.880;-0.518;2023-02-15T03:09:23;7.40;;;6.70;;
39434;SDS011;66825;51.880;-0.518;2023-02-15T03:11:59;7.50;;;6.80;;
39434;SDS011;66825;51.880;-0.518;2023-02-15T03:14:26;7.93;;;7.13;;
39434;SDS011;66825;51.880;-0.518;2023-02-15T03:16:53;7.55;;;6.80;;
39434;SDS011;66825;51.880;-0.518;2023-02-15T03:19:23;7.72;;;6.95;;
39434;SDS011;66825;51.880;-0.518;2023-02-15T03:22:06;7.50;;;6.80;;
39434;SDS011;66825;51.880;-0.518;2023-02-15T03:24:55;7.88;;;7.18;;
39434;SDS011;66825;51.880;-0.518;2023-02-15T03:27:30;7.90;;;7.10;;
39434;SDS011;66825;51.880;-0.518;2023-02-15T03:30:01;7.93;;;7.05;;
39434;SDS011;66825;51.880;-0.518;2023-02-15T03:32:28;8.32;;;7.38;;
39434;SDS011;66825;51.880;-0.518;2023-02-15T03:34:57;7.97;;;7.18;;
39434;SDS011;66825;51.880;-0.518;2023-02-15T03:37:26;7.45;;;6.65;;
39434;SDS011;66825;51.880;-0.518;2023-02-15T03:40:06;7.45;;;6.75;;
39434;SDS011;66825;51.880;-0.518;2023-02-15T03:45:42;7.45;;;6.75;;
39434;SDS011;66825;51.880;-0.518;2023-02-15T03:48:41;7.03;;;6.32;;
39434;SDS011;66825;51.880;-0.518;2023-02-15T03:51:09;7.03;;;6.32;;
39434;SDS011;66825;51.880;-0.518;2023-02-15T03:53:58;7.60;;;6.80;;
39434;SDS011;66825;51.880;-0.518;2023-02-15T03:56:26;8.90;;;7.10;;
39434;SDS011;66825;51.880;-0.518;2023-02-15T03:58:52;7.72;;;6.85;;
39434;SDS011;66825;51.880;-0.518;2023-02-15T04:04:28;6.83;;;6.13;;
39434;SDS011;66825;51.880;-0.518;2023-02-15T04:06:58;7.00;;;6.22;;
39434;SDS011;66825;51.880;-0.518;2023-02-15T04:09:24;6.93;;;6.22;;
39434;SDS011;66825;51.880;-0.518;2023-02-15T04:12:08;7.40;;;6.70;;
39434;SDS011;66825;51.880;-0.518;2023-02-15T04:14:34;7.07;;;6.38;;
39434;SDS011;66825;51.880;-0.518;2023-02-15T04:17:18;7.35;;;6.40;;
39434;SDS011;66825;51.880;-0.518;2023-02-15T04:19:43;7.30;;;6.50;;
39434;SDS011;66825;51.880;-0.518;2023-02-15T04:22:27;7.38;;;6.35;;
39434;SDS011;66825;51.880;-0.518;2023-02-15T04:25:11;7.15;;;6.25;;
39434;SDS011;66825;51.880;-0.518;2023-02-15T04:27:41;7.47;;;6.65;;
39434;SDS011;66825;51.880;-0.518;2023-02-15T04:30:08;7.65;;;6.75;;
39434;SDS011;66825;51.880;-0.518;2023-02-15T04:32:35;6.88;;;6.18;;
39434;SDS011;66825;51.880;-0.518;2023-02-15T04:35:01;7.97;;;7.10;;
39434;SDS011;66825;51.880;-0.518;2023-02-15T04:37:27;6.93;;;6.22;;
39434;SDS011;66825;51.880;-0.518;2023-02-15T04:39:52;7.72;;;6.60;;
39434;SDS011;66825;51.880;-0.518;2023-02-15T04:42:18;7.78;;;6.97;;
39434;SDS011;66825;51.880;-0.518;2023-02-15T04:44:44;7.25;;;6.55;;
39434;SDS011;66825;51.880;-0.518;2023-02-15T04:47:09;7.28;;;6.57;;
39434;SDS011;66825;51.880;-0.518;2023-02-15T04:49:35;7.35;;;6.65;;
39434;SDS011;66825;51.880;-0.518;2023-02-15T04:52:00;7.32;;;6.63;;
39434;SDS011;66825;51.880;-0.518;2023-02-15T04:54:26;8.15;;;6.63;;
39434;SDS011;66825;51.880;-0.518;2023-02-15T04:56:51;7.88;;;7.07;;
39434;SDS011;66825;51.880;-0.518;2023-02-15T04:59:17;8.25;;;7.10;;
39434;SDS011;66825;51.880;-0.518;2023-02-15T05:01:42;7.78;;;6.95;;
39434;SDS011;66825;51.880;-0.518;2023-02-15T05:04:08;7.82;;;7.03;;
39434;SDS011;66825;51.880;-0.518;2023-02-15T05:06:34;7.72;;;6.93;;
39434;SDS011;66825;51.880;-0.518;2023-02-15T05:08:59;7.88;;;7.07;;
39434;SDS011;66825;51.880;-0.518;2023-02-15T05:11:25;7.75;;;6.97;;
39434;SDS011;66825;51.880;-0.518;2023-02-15T05:13:51;8.13;;;7.32;;
39434;SDS011;66825;51.880;-0.518;2023-02-15T05:16:16;7.88;;;7.07;;
39434;SDS011;66825;51.880;-0.518;2023-02-15T05:18:42;7.78;;;6.97;;
39434;SDS011;66825;51.880;-0.518;2023-02-15T05:21:07;7.72;;;6.93;;
39434;SDS011;66825;51.880;-0.518;2023-02-15T05:23:33;7.93;;;7.13;;
39434;SDS011;66825;51.880;-0.518;2023-02-15T05:25:59;7.38;;;6.65;;
39434;SDS011;66825;51.880;-0.518;2023-02-15T05:28:43;8.02;;;7.22;;
39434;SDS011;66825;51.880;-0.518;2023-02-15T05:31:12;7.50;;;6.70;;
39434;SDS011;66825;51.880;-0.518;2023-02-15T05:33:40;7.63;;;6.88;;
39434;SDS011;66825;51.880;-0.518;2023-02-15T05:36:05;8.20;;;7.40;;
39434;SDS011;66825;51.880;-0.518;2023-02-15T05:38:32;8.50;;;7.50;;
39434;SDS011;66825;51.880;-0.518;2023-02-15T05:40:58;8.70;;;7.80;;
39434;SDS011;66825;51.880;-0.518;2023-02-15T05:43:24;8.10;;;7.30;;
39434;SDS011;66825;51.880;-0.518;2023-02-15T05:45:50;8.23;;;7.43;;
39434;SDS011;66825;51.880;-0.518;2023-02-15T05:48:17;8.75;;;7.45;;
39434;SDS011;66825;51.880;-0.518;2023-02-15T05:50:44;9.13;;;8.23;;
39434;SDS011;66825;51.880;-0.518;2023-02-15T05:53:10;7.85;;;7.05;;
39434;SDS011;66825;51.880;-0.518;2023-02-15T05:55:39;8.15;;;7.35;;
39434;SDS011;66825;51.880;-0.518;2023-02-15T05:58:05;8.23;;;7.43;;
39434;SDS011;66825;51.880;-0.518;2023-02-15T06:00:31;8.68;;;7.78;;
39434;SDS011;66825;51.880;-0.518;2023-02-15T06:02:57;8.43;;;7.63;;
39434;SDS011;66825;51.880;-0.518;2023-02-15T06:05:22;8.68;;;7.78;;
39434;SDS011;66825;51.880;-0.518;2023-02-15T06:07:48;8.75;;;7.85;;
39434;SDS011;66825;51.880;-0.518;2023-02-15T06:10:13;9.23;;;8.32;;
39434;SDS011;66825;51.880;-0.518;2023-02-15T06:12:39;8.70;;;7.90;;
39434;SDS011;66825;51.880;-0.518;2023-02-15T06:15:04;10.23;;;8.82;;
39434;SDS011;66825;51.880;-0.518;2023-02-15T06:17:30;9.38;;;8.27;;
39434;SDS011;66825;51.880;-0.518;2023-02-15T06:19:55;9.20;;;8.18;;
39434;SDS011;66825;51.880;-0.518;2023-02-15T06:22:21;8.70;;;7.70;;
39434;SDS011;66825;51.880;-0.518;2023-02-15T06:24:47;9.35;;;8.30;;
39434;SDS011;66825;51.880;-0.518;2023-02-15T06:27:12;9.75;;;8.75;;
39434;SDS011;66825;51.880;-0.518;2023-02-15T06:29:38;8.82;;;7.90;;
39434;SDS011;66825;51.880;-0.518;2023-02-15T06:32:03;9.43;;;8.52;;
39434;SDS011;66825;51.880;-0.518;2023-02-15T06:34:29;9.00;;;8.10;;
39434;SDS011;66825;51.880;-0.518;2023-02-15T06:36:55;9.07;;;8.18;;
39434;SDS011;66825;51.880;-0.518;2023-02-15T06:39:20;9.00;;;8.10;;
39434;SDS011;66825;51.880;-0.518;2023-02-15T06:41:46;9.57;;;8.57;;
39434;SDS011;66825;51.880;-0.518;2023-02-15T06:44:11;9.35;;;8.43;;
39434;SDS011;66825;51.880;-0.518;2023-02-15T06:46:37;9.20;;;8.30;;
39434;SDS011;66825;51.880;-0.518;2023-02-15T06:49:02;9.18;;;8.27;;
39434;SDS011;66825;51.880;-0.518;2023-02-15T06:51:27;9.60;;;8.65;;
39434;SDS011;66825;51.880;-0.518;2023-02-15T06:53:53;9.50;;;8.50;;
39434;SDS011;66825;51.880;-0.518;2023-02-15T06:56:18;9.18;;;8.35;;
39434;SDS011;66825;51.880;-0.518;2023-02-15T06:58:44;8.43;;;7.63;;
39434;SDS011;66825;51.880;-0.518;2023-02-15T07:01:14;9.05;;;8.15;;
39434;SDS011;66825;51.880;-0.518;2023-02-15T07:03:40;8.48;;;7.68;;
39434;SDS011;66825;51.880;-0.518;2023-02-15T07:06:06;9.02;;;8.13;;
39434;SDS011;66825;51.880;-0.518;2023-02-15T07:08:33;8.85;;;7.95;;
39434;SDS011;66825;51.880;-0.518;2023-02-15T07:11:00;9.25;;;8.35;;
39434;SDS011;66825;51.880;-0.518;2023-02-15T07:13:45;9.45;;;8.45;;
39434;SDS011;66825;51.880;-0.518;2023-02-15T07:16:11;9.13;;;8.23;;
39434;SDS011;66825;51.880;-0.518;2023-02-15T07:18:38;9.65;;;8.65;;
39434;SDS011;66825;51.880;-0.518;2023-02-15T07:21:04;8.73;;;7.88;;
39434;SDS011;66825;51.880;-0.518;2023-02-15T07:23:33;8.93;;;8.02;;
39434;SDS011;66825;51.880;-0.518;2023-02-15T07:26:02;9.57;;;8.65;;
39434;SDS011;66825;51.880;-0.518;2023-02-15T07:28:29;8.93;;;8.02;;
39434;SDS011;66825;51.880;-0.518;2023-02-15T07:30:54;8.85;;;7.97;;
39434;SDS011;66825;51.880;-0.518;2023-02-15T07:33:20;8.43;;;7.63;;
39434;SDS011;66825;51.880;-0.518;2023-02-15T07:35:52;8.95;;;8.05;;
39434;SDS011;66825;51.880;-0.518;2023-02-15T07:38:19;8.18;;;7.38;;
39434;SDS011;66825;51.880;-0.518;2023-02-15T07:40:46;8.70;;;7.82;;
39434;SDS011;66825;51.880;-0.518;2023-02-15T07:43:12;8.55;;;7.57;;
39434;SDS011;66825;51.880;-0.518;2023-02-15T07:45:38;8.27;;;7.47;;
39434;SDS011;66825;51.880;-0.518;2023-02-15T07:48:04;7.70;;;7.00;;
39434;SDS011;66825;51.880;-0.518;2023-02-15T07:50:31;8.35;;;7.53;;
39434;SDS011;66825;51.880;-0.518;2023-02-15T07:52:57;8.20;;;7.40;;
39434;SDS011;66825;51.880;-0.518;2023-02-15T07:55:23;8.68;;;7.50;;
39434;SDS011;66825;51.880;-0.518;2023-02-15T07:57:50;7.90;;;7.18;;
39434;SDS011;66825;51.880;-0.518;2023-02-15T08:00:17;8.68;;;7.78;;
39434;SDS011;66825;51.880;-0.518;2023-02-15T08:02:53;10.00;;;8.73;;
39434;SDS011;66825;51.880;-0.518;2023-02-15T08:05:42;11.00;;;8.88;;
39434;SDS011;66825;51.880;-0.518;2023-02-15T08:11:04;9.35;;;8.27;;
39434;SDS011;66825;51.880;-0.518;2023-02-15T08:13:56;10.68;;;8.57;;
39434;SDS011;66825;51.880;-0.518;2023-02-15T08:19:05;9.98;;;8.68;;
39434;SDS011;66825;51.880;-0.518;2023-02-15T08:21:48;9.23;;;7.85;;
39434;SDS011;66825;51.880;-0.518;2023-02-15T08:24:16;10.15;;;9.05;;
39434;SDS011;66825;51.880;-0.518;2023-02-15T08:26:43;9.93;;;7.95;;
39434;SDS011;66825;51.880;-0.518;2023-02-15T08:29:16;10.93;;;8.10;;
39434;SDS011;66825;51.880;-0.518;2023-02-15T08:31:43;10.40;;;8.05;;
39434;SDS011;66825;51.880;-0.518;2023-02-15T08:34:10;8.95;;;8.02;;
39434;SDS011;66825;51.880;-0.518;2023-02-15T08:36:38;10.07;;;7.70;;
39434;SDS011;66825;51.880;-0.518;2023-02-15T08:39:04;8.50;;;7.60;;
39434;SDS011;66825;51.880;-0.518;2023-02-15T08:41:31;8.48;;;7.60;;
39434;SDS011;66825;51.880;-0.518;2023-02-15T08:44:00;8.65;;;7.65;;
39434;SDS011;66825;51.880;-0.518;2023-02-15T08:46:28;8.65;;;7.80;;
39434;SDS011;66825;51.880;-0.518;2023-02-15T08:48:55;8.95;;;8.05;;
39434;SDS011;66825;51.880;-0.518;2023-02-15T08:51:22;9.80;;;7.60;;
39434;SDS011;66825;51.880;-0.518;2023-02-15T08:53:53;8.80;;;7.50;;
39434;SDS011;66825;51.880;-0.518;2023-02-15T08:56:21;8.65;;;7.57;;
39434;SDS011;66825;51.880;-0.518;2023-02-15T08:58:49;7.80;;;7.00;;
39434;SDS011;66825;51.880;-0.518;2023-02-15T09:01:16;8.57;;;7.45;;
39434;SDS011;66825;51.880;-0.518;2023-02-15T09:03:43;8.10;;;7.30;;
39434;SDS011;66825;51.880;-0.518;2023-02-15T09:06:10;8.40;;;7.15;;
39434;SDS011;66825;51.880;-0.518;2023-02-15T09:08:36;8.70;;;7.55;;
39434;SDS011;66825;51.880;-0.518;2023-02-15T09:11:09;7.78;;;7.00;;
39434;SDS011;66825;51.880;-0.518;2023-02-15T09:13:58;9.18;;;7.70;;
39434;SDS011;66825;51.880;-0.518;2023-02-15T09:16:26;10.98;;;9.07;;
39434;SDS011;66825;51.880;-0.518;2023-02-15T09:18:57;14.30;;;9.18;;
39434;SDS011;66825;51.880;-0.518;2023-02-15T09:21:23;12.50;;;9.18;;
39434;SDS011;66825;51.880;-0.518;2023-02-15T09:23:51;11.02;;;8.02;;
39434;SDS011;66825;51.880;-0.518;2023-02-15T09:26:21;11.63;;;10.45;;
39434;SDS011;66825;51.880;-0.518;2023-02-15T09:28:51;12.57;;;9.98;;
39434;SDS011;66825;51.880;-0.518;2023-02-15T09:31:19;17.40;;;15.57;;
39434;SDS011;66825;51.880;-0.518;2023-02-15T09:33:46;18.02;;;13.60;;
39434;SDS011;66825;51.880;-0.518;2023-02-15T09:38:45;20.95;;;17.75;;
39434;SDS011;66825;51.880;-0.518;2023-02-15T10:03:15;32.10;;;26.23;;
39434;SDS011;66825;51.880;-0.518;2023-02-15T10:05:53;28.58;;;25.10;;
39434;SDS011;66825;51.880;-0.518;2023-02-15T10:08:51;30.05;;;25.13;;
39434;SDS011;66825;51.880;-0.518;2023-02-15T10:19:44;24.23;;;21.42;;
39434;SDS011;66825;51.880;-0.518;2023-02-15T10:28:15;21.17;;;17.75;;
39434;SDS011;66825;51.880;-0.518;2023-02-15T10:30:49;23.05;;;17.95;;
39434;SDS011;66825;51.880;-0.518;2023-02-15T10:44:13;17.70;;;13.87;;
39434;SDS011;66825;51.880;-0.518;2023-02-15T10:49:45;21.63;;;14.27;;
39434;SDS011;66825;51.880;-0.518;2023-02-15T10:58:03;16.33;;;12.40;;
39434;SDS011;66825;51.880;-0.518;2023-02-15T11:00:43;13.05;;;10.68;;
39434;SDS011;66825;51.880;-0.518;2023-02-15T11:03:18;21.17;;;11.95;;
39434;SDS011;66825;51.880;-0.518;2023-02-15T11:06:03;20.55;;;12.30;;
39434;SDS011;66825;51.880;-0.518;2023-02-15T11:08:32;18.60;;;11.05;;
39434;SDS011;66825;51.880;-0.518;2023-02-15T11:11:07;17.30;;;11.95;;
39434;SDS011;66825;51.880;-0.518;2023-02-15T11:13:38;13.60;;;10.65;;
39434;SDS011;66825;51.880;-0.518;2023-02-15T11:18:38;14.15;;;9.75;;
39434;SDS011;66825;51.880;-0.518;2023-02-15T11:21:10;13.95;;;8.65;;
39434;SDS011;66825;51.880;-0.518;2023-02-15T11:23:40;14.68;;;9.40;;
39434;SDS011;66825;51.880;-0.518;2023-02-15T11:31:51;11.95;;;8.10;;
39434;SDS011;66825;51.880;-0.518;2023-02-15T11:36:52;10.90;;;7.63;;
39434;SDS011;66825;51.880;-0.518;2023-02-15T11:39:23;13.55;;;7.97;;
39434;SDS011;66825;51.880;-0.518;2023-02-15T11:41:54;12.95;;;7.82;;
39434;SDS011;66825;51.880;-0.518;2023-02-15T11:44:26;12.65;;;7.85;;
39434;SDS011;66825;51.880;-0.518;2023-02-15T11:46:57;13.93;;;7.43;;
39434;SDS011;66825;51.880;-0.518;2023-02-15T11:52:00;12.35;;;6.65;;
39434;SDS011;66825;51.880;-0.518;2023-02-15T11:54:33;11.55;;;7.45;;
39434;SDS011;66825;51.880;-0.518;2023-02-15T11:57:10;9.98;;;6.22;;
39434;SDS011;66825;51.880;-0.518;2023-02-15T11:59:42;9.07;;;6.25;;
39434;SDS011;66825;51.880;-0.518;2023-02-15T12:02:17;10.48;;;6.63;;
39434;SDS011;66825;51.880;-0.518;2023-02-15T12:04:55;10.98;;;6.63;;
39434;SDS011;66825;51.880;-0.518;2023-02-15T12:13:12;7.97;;;5.88;;
39434;SDS011;66825;51.880;-0.518;2023-02-15T12:15:36;8.30;;;5.40;;
39434;SDS011;66825;51.880;-0.518;2023-02-15T12:18:15;9.48;;;6.45;;
39434;SDS011;66825;51.880;-0.518;2023-02-15T12:20:44;10.85;;;6.10;;
39434;SDS011;66825;51.880;-0.518;2023-02-15T12:23:12;12.05;;;6.97;;
39434;SDS011;66825;51.880;-0.518;2023-02-15T12:34:18;8.70;;;5.38;;
39434;SDS011;66825;51.880;-0.518;2023-02-15T12:36:56;10.05;;;5.88;;
39434;SDS011;66825;51.880;-0.518;2023-02-15T12:39:30;9.43;;;5.60;;
39434;SDS011;66825;51.880;-0.518;2023-02-15T12:41:57;12.32;;;6.75;;
39434;SDS011;66825;51.880;-0.518;2023-02-15T12:44:35;22.98;;;11.73;;
39434;SDS011;66825;51.880;-0.518;2023-02-15T12:49:34;11.80;;;6.13;;
39434;SDS011;66825;51.880;-0.518;2023-02-15T12:52:02;12.93;;;6.15;;
39434;SDS011;66825;51.880;-0.518;2023-02-15T12:54:45;7.53;;;5.53;;
39434;SDS011;66825;51.880;-0.518;2023-02-15T12:59:49;11.52;;;6.97;;
39434;SDS011;66825;51.880;-0.518;2023-02-15T13:02:20;10.23;;;6.00;;
39434;SDS011;66825;51.880;-0.518;2023-02-15T13:04:49;9.52;;;6.57;;
39434;SDS011;66825;51.880;-0.518;2023-02-15T13:07:15;14.75;;;7.93;;
39434;SDS011;66825;51.880;-0.518;2023-02-15T13:09:41;14.45;;;7.80;;
39434;SDS011;66825;51.880;-0.518;2023-02-15T13:12:23;10.60;;;6.78;;
39434;SDS011;66825;51.880;-0.518;2023-02-15T13:14:52;9.95;;;6.97;;
39434;SDS011;66825;51.880;-0.518;2023-02-15T13:17:40;11.60;;;7.20;;
39434;SDS011;66825;51.880;-0.518;2023-02-15T13:20:18;13.82;;;7.25;;
39434;SDS011;66825;51.880;-0.518;2023-02-15T13:22:49;12.60;;;6.78;;
39434;SDS011;66825;51.880;-0.518;2023-02-15T13:25:19;11.65;;;7.15;;
39434;SDS011;66825;51.880;-0.518;2023-02-15T13:27:48;10.45;;;7.18;;
39434;SDS011;66825;51.880;-0.518;2023-02-15T13:30:20;12.20;;;6.50;;
39434;SDS011;66825;51.880;-0.518;2023-02-15T13:32:58;11.52;;;7.13;;
39434;SDS011;66825;51.880;-0.518;2023-02-15T13:35:28;8.27;;;6.35;;
39434;SDS011;66825;51.880;-0.518;2023-02-15T13:41:00;10.27;;;6.85;;
39434;SDS011;66825;51.880;-0.518;2023-02-15T13:46:44;11.80;;;5.97;;
39434;SDS011;66825;51.880;-0.518;2023-02-15T13:49:28;10.35;;;5.47;;
39434;SDS011;66825;51.880;-0.518;2023-02-15T13:57:45;11.57;;;5.25;;
39434;SDS011;66825;51.880;-0.518;2023-02-15T14:09:07;10.93;;;5.05;;
39434;SDS011;66825;51.880;-0.518;2023-02-15T14:19:51;13.48;;;4.88;;
39434;SDS011;66825;51.880;-0.518;2023-02-15T14:30:34;7.35;;;4.45;;
39434;SDS011;66825;51.880;-0.518;2023-02-15T14:35:29;17.80;;;5.47;;
39434;SDS011;66825;51.880;-0.518;2023-02-15T14:49:14;8.95;;;4.40;;
39434;SDS011;66825;51.880;-0.518;2023-02-15T14:54:54;9.90;;;4.70;;
39434;SDS011;66825;51.880;-0.518;2023-02-15T14:59:46;9.10;;;4.18;;
39434;SDS011;66825;51.880;-0.518;2023-02-15T15:03:04;8.82;;;4.25;;
39434;SDS011;66825;51.880;-0.518;2023-02-15T15:05:18;12.60;;;4.55;;
39434;SDS011;66825;51.880;-0.518;2023-02-15T15:07:52;12.38;;;5.10;;
39434;SDS011;66825;51.880;-0.518;2023-02-15T15:25:40;10.68;;;4.85;;
39434;SDS011;66825;51.880;-0.518;2023-02-15T15:28:08;10.23;;;5.05;;
39434;SDS011;66825;51.880;-0.518;2023-02-15T15:49:34;8.90;;;5.05;;
39434;SDS011;66825;51.880;-0.518;2023-02-15T15:52:03;8.90;;;5.10;;
39434;SDS011;66825;51.880;-0.518;2023-02-15T15:54:41;8.55;;;4.82;;
39434;SDS011;66825;51.880;-0.518;2023-02-15T15:57:28;9.15;;;4.95;;
39434;SDS011;66825;51.880;-0.518;2023-02-15T16:00:04;9.00;;;4.80;;
39434;SDS011;66825;51.880;-0.518;2023-02-15T16:02:53;8.38;;;4.95;;
39434;SDS011;66825;51.880;-0.518;2023-02-15T16:05:20;7.65;;;4.32;;
39434;SDS011;66825;51.880;-0.518;2023-02-15T16:07:46;8.07;;;4.35;;
39434;SDS011;66825;51.880;-0.518;2023-02-15T16:10:25;6.03;;;4.30;;
39434;SDS011;66825;51.880;-0.518;2023-02-15T16:12:52;5.68;;;3.85;;
39434;SDS011;66825;51.880;-0.518;2023-02-15T16:15:20;8.30;;;4.30;;
39434;SDS011;66825;51.880;-0.518;2023-02-15T16:17:50;7.35;;;4.32;;
39434;SDS011;66825;51.880;-0.518;2023-02-15T16:26:04;9.05;;;4.25;;
39434;SDS011;66825;51.880;-0.518;2023-02-15T16:28:32;10.48;;;4.18;;
39434;SDS011;66825;51.880;-0.518;2023-02-15T16:31:10;7.88;;;3.85;;
39434;SDS011;66825;51.880;-0.518;2023-02-15T16:33:39;10.13;;;4.10;;
39434;SDS011;66825;51.880;-0.518;2023-02-15T16:36:06;10.43;;;3.90;;
39434;SDS011;66825;51.880;-0.518;2023-02-15T16:41:08;10.15;;;4.10;;
39434;SDS011;66825;51.880;-0.518;2023-02-15T16:43:36;9.75;;;3.90;;
39434;SDS011;66825;51.880;-0.518;2023-02-15T16:46:05;9.55;;;3.83;;
39434;SDS011;66825;51.880;-0.518;2023-02-15T16:48:33;7.88;;;3.88;;
39434;SDS011;66825;51.880;-0.518;2023-02-15T16:51:04;8.38;;;3.83;;
39434;SDS011;66825;51.880;-0.518;2023-02-15T16:53:29;11.00;;;4.30;;
39434;SDS011;66825;51.880;-0.518;2023-02-15T16:55:57;5.70;;;3.22;;
39434;SDS011;66825;51.880;-0.518;2023-02-15T16:58:32;9.07;;;3.60;;
39434;SDS011;66825;51.880;-0.518;2023-02-15T17:01:03;16.20;;;4.75;;
39434;SDS011;66825;51.880;-0.518;2023-02-15T17:03:32;12.05;;;5.03;;
39434;SDS011;66825;51.880;-0.518;2023-02-15T17:05:59;12.18;;;5.00;;
39434;SDS011;66825;51.880;-0.518;2023-02-15T17:11:35;10.10;;;4.95;;
39434;SDS011;66825;51.880;-0.518;2023-02-15T17:16:32;12.70;;;5.30;;
39434;SDS011;66825;51.880;-0.518;2023-02-15T17:19:09;9.15;;;5.22;;
39434;SDS011;66825;51.880;-0.518;2023-02-15T17:21:41;13.63;;;5.43;;
39434;SDS011;66825;51.880;-0.518;2023-02-15T17:24:19;12.18;;;4.65;;
39434;SDS011;66825;51.880;-0.518;2023-02-15T17:26:51;7.18;;;4.43;;
39434;SDS011;66825;51.880;-0.518;2023-02-15T17:31:59;8.45;;;4.32;;
39434;SDS011;66825;51.880;-0.518;2023-02-15T17:34:50;9.52;;;4.50;;
39434;SDS011;66825;51.880;-0.518;2023-02-15T17:37:28;9.88;;;4.30;;
39434;SDS011;66825;51.880;-0.518;2023-02-15T17:39:56;12.00;;;4.80;;
39434;SDS011;66825;51.880;-0.518;2023-02-15T17:42:23;8.68;;;3.95;;
39434;SDS011;66825;51.880;-0.518;2023-02-15T17:44:48;7.88;;;4.30;;
39434;SDS011;66825;51.880;-0.518;2023-02-15T17:47:15;8.45;;;4.38;;
39434;SDS011;66825;51.880;-0.518;2023-02-15T17:49:44;8.32;;;4.20;;
39434;SDS011;66825;51.880;-0.518;2023-02-15T17:52:13;7.22;;;4.13;;
39434;SDS011;66825;51.880;-0.518;2023-02-15T17:54:39;7.47;;;4.10;;
39434;SDS011;66825;51.880;-0.518;2023-02-15T17:57:24;5.90;;;4.13;;
39434;SDS011;66825;51.880;-0.518;2023-02-15T17:59:51;10.32;;;4.00;;
39434;SDS011;66825;51.880;-0.518;2023-02-15T18:02:35;8.55;;;4.20;;
39434;SDS011;66825;51.880;-0.518;2023-02-15T18:05:20;7.05;;;3.83;;
39434;SDS011;66825;51.880;-0.518;2023-02-15T18:08:05;7.40;;;4.00;;
39434;SDS011;66825;51.880;-0.518;2023-02-15T18:10:59;8.10;;;4.03;;
39434;SDS011;66825;51.880;-0.518;2023-02-15T18:13:44;7.80;;;4.15;;
39434;SDS011;66825;51.880;-0.518;2023-02-15T18:16:13;7.93;;;4.00;;
39434;SDS011;66825;51.880;-0.518;2023-02-15T18:21:06;6.60;;;4.00;;
39434;SDS011;66825;51.880;-0.518;2023-02-15T18:23:32;5.93;;;3.42;;
39434;SDS011;66825;51.880;-0.518;2023-02-15T18:25:58;8.13;;;4.15;;
39434;SDS011;66825;51.880;-0.518;2023-02-15T18:28:23;7.03;;;3.80;;
39434;SDS011;66825;51.880;-0.518;2023-02-15T18:30:49;5.05;;;3.70;;
39434;SDS011;66825;51.880;-0.518;2023-02-15T18:33:22;7.07;;;4.03;;
39434;SDS011;66825;51.880;-0.518;2023-02-15T18:35:56;6.03;;;3.40;;
39434;SDS011;66825;51.880;-0.518;2023-02-15T18:38:22;7.15;;;3.80;;
39434;SDS011;66825;51.880;-0.518;2023-02-15T18:40:47;5.95;;;3.85;;
39434;SDS011;66825;51.880;-0.518;2023-02-15T18:43:14;7.15;;;3.72;;
39434;SDS011;66825;51.880;-0.518;2023-02-15T18:45:40;7.13;;;3.80;;